Time;durP1;ratioP1;P1;durP2;ratioP2;P2;SDS_P1;SDS_P2;PMS_P1;PMS_P2;Temp;Humidity;BMP_temperature;BMP_pressure;BME280_temperature;BME280_humidity;BME280_pressure;Samples;Min_cycle;Max_cycle;Signal;HPM_P1;HPM_P2
2023/05/14 00:01:29;;;;;;;6.37;5.97;;;;;;;11.07;100.00;100305.97;5023783;28;20200;-76
2023/05/14 00:03:54;;;;;;;8.80;8.03;;;;;;;11.03;100.00;100309.47;5024216;28;20199;-76
2023/05/14 00:06:20;;;;;;;10.23;9.47;;;;;;;11.01;100.00;100303.44;5005170;28;20203;-76
2023/05/14 00:08:45;;;;;;;9.97;9.27;;;;;;;10.97;100.00;100292.25;5024276;28;20184;-75
2023/05/14 00:11:11;;;;;;;11.30;10.50;;;;;;;10.95;100.00;100294.03;5023357;28;20891;-76
2023/05/14 00:13:36;;;;;;;10.80;9.87;;;;;;;10.94;100.00;100289.72;5023202;28;20180;-76
2023/05/14 00:16:02;;;;;;;9.23;8.57;;;;;;;10.93;100.00;100288.00;5024144;28;20214;-77
2023/05/14 00:18:28;;;;;;;9.07;8.47;;;;;;;10.93;100.00;100289.72;5009193;28;20215;-77
2023/05/14 00:20:53;;;;;;;8.80;8.10;;;;;;;10.91;100.00;100288.88;5023260;28;20266;-76
2023/05/14 00:23:22;;;;;;;8.43;7.80;;;;;;;10.91;100.00;100283.69;5023388;28;20203;-76
2023/05/14 00:25:47;;;;;;;7.60;7.10;;;;;;;10.90;100.00;100269.91;5022213;28;20299;-76
2023/05/14 00:28:12;;;;;;;7.93;7.33;;;;;;;10.93;100.00;100274.19;5023487;28;20743;-75
2023/05/14 00:30:38;;;;;;;7.67;7.10;;;;;;;10.95;100.00;100275.03;5024091;28;20196;-77
2023/05/14 00:33:04;;;;;;;7.77;7.27;;;;;;;10.96;100.00;100272.44;5024532;28;20179;-76
2023/05/14 00:35:30;;;;;;;7.43;6.93;;;;;;;10.98;100.00;100275.00;5020929;28;20298;-76
2023/05/14 00:37:55;;;;;;;7.23;6.73;;;;;;;11.01;100.00;100272.38;5022361;28;20326;-76
2023/05/14 00:40:24;;;;;;;7.23;6.80;;;;;;;11.04;100.00;100279.25;5025173;28;20724;-76
2023/05/14 00:42:50;;;;;;;7.37;6.87;;;;;;;11.06;100.00;100275.75;5020809;28;20195;-77
2023/05/14 00:45:15;;;;;;;7.43;6.73;;;;;;;11.07;100.00;100267.09;5024083;28;20215;-77
2023/05/14 00:47:40;;;;;;;7.00;6.50;;;;;;;11.09;100.00;100265.38;5023990;28;20191;-76
2023/05/14 00:50:07;;;;;;;5.67;5.27;;;;;;;11.10;100.00;100264.50;5024273;28;20188;-77
2023/05/14 00:52:32;;;;;;;6.30;5.90;;;;;;;11.10;100.00;100259.31;5021135;28;20210;-76
2023/05/14 00:54:59;;;;;;;5.80;5.40;;;;;;;11.11;100.00;100257.59;5024556;28;20207;-75
2023/05/14 00:57:25;;;;;;;6.10;5.70;;;;;;;11.13;100.00;100251.50;5022073;28;20188;-75
2023/05/14 00:59:50;;;;;;;6.00;5.60;;;;;;;11.16;100.00;100252.34;5022189;28;20211;-75
2023/05/14 01:02:16;;;;;;;5.23;4.93;;;;;;;11.17;100.00;100254.91;5024230;28;20203;-77
2023/05/14 01:04:41;;;;;;;5.40;5.00;;;;;;;11.19;100.00;100249.75;5021722;28;20207;-77
2023/05/14 01:07:32;;;;;;;5.73;5.23;;;;;;;11.18;100.00;100248.88;5023862;28;20618;-76
2023/05/14 01:10:16;;;;;;;5.10;4.70;;;;;;;11.17;100.00;100256.66;5020275;28;20291;-76
2023/05/14 01:13:04;;;;;;;5.30;5.00;;;;;;;11.16;100.00;100260.13;5021607;28;20278;-76
2023/05/14 01:15:32;;;;;;;5.47;5.07;;;;;;;11.15;100.00;100267.03;5022483;28;20323;-76
2023/05/14 01:18:02;;;;;;;5.63;5.23;;;;;;;11.13;100.00;100267.06;5023144;28;20223;-77
2023/05/14 01:20:27;;;;;;;6.10;5.60;;;;;;;11.12;100.00;100259.28;5022049;28;20210;-76
2023/05/14 01:22:53;;;;;;;5.90;5.50;;;;;;;11.10;100.00;100258.47;5024560;28;20230;-76
2023/05/14 01:25:18;;;;;;;6.00;5.60;;;;;;;11.08;100.00;100261.06;5022301;28;20232;-76
2023/05/14 01:28:08;;;;;;;6.40;5.90;;;;;;;11.11;100.00;100261.03;5022366;28;20263;-76
2023/05/14 01:30:44;;;;;;;6.67;6.07;;;;;;;11.13;100.00;100255.81;5023684;28;20223;-76
2023/05/14 01:33:15;;;;;;;5.80;5.40;;;;;;;11.14;100.00;100257.53;5020902;28;20189;-77
2023/05/14 01:35:42;;;;;;;6.70;6.20;;;;;;;11.16;100.00;100263.56;5027073;28;21071;-78
2023/05/14 01:38:12;;;;;;;6.00;5.60;;;;;;;11.19;100.00;100260.09;5007679;28;20220;-76
2023/05/14 01:40:38;;;;;;;6.03;5.63;;;;;;;11.22;100.00;100260.03;5025399;28;20193;-76
2023/05/14 01:43:04;;;;;;;5.70;5.30;;;;;;;11.25;100.00;100260.00;5010385;28;20219;-75
2023/05/14 01:45:30;;;;;;;6.00;5.60;;;;;;;11.27;100.00;100256.50;5027415;28;20219;-76
2023/05/14 01:47:56;;;;;;;5.90;5.50;;;;;;;11.29;100.00;100257.34;5026060;28;20191;-76
2023/05/14 01:50:22;;;;;;;6.13;5.73;;;;;;;11.32;100.00;100259.06;5027605;28;20310;-75
2023/05/14 01:52:47;;;;;;;5.77;5.37;;;;;;;11.36;100.00;100262.47;5022848;28;20975;-76
2023/05/14 01:55:14;;;;;;;6.20;5.80;;;;;;;11.37;100.00;100259.84;5024592;28;20211;-76
2023/05/14 01:57:39;;;;;;;5.90;5.50;;;;;;;11.39;100.00;100263.28;5026100;28;20302;-75
2023/05/14 02:00:05;;;;;;;5.83;5.43;;;;;;;11.40;100.00;100262.41;5027762;28;20268;-76
2023/05/14 02:02:30;;;;;;;5.53;5.13;;;;;;;11.39;100.00;100257.25;5008213;28;20191;-75
2023/05/14 02:04:56;;;;;;;5.40;5.00;;;;;;;11.40;100.00;100257.22;5028587;28;20334;-77
2023/05/14 02:07:21;;;;;;;6.07;5.67;;;;;;;11.39;100.00;100257.25;5026999;28;20183;-76
2023/05/14 02:09:46;;;;;;;5.73;5.23;;;;;;;11.36;100.00;100246.91;5026786;28;20172;-78
2023/05/14 02:12:12;;;;;;;5.93;5.53;;;;;;;11.34;100.00;100249.53;5028561;28;20652;-76
2023/05/14 02:14:37;;;;;;;5.97;5.57;;;;;;;11.31;100.00;100256.47;5026882;28;20266;-76
2023/05/14 02:17:03;;;;;;;6.13;5.73;;;;;;;11.24;100.00;100255.69;5010097;28;20195;-77
2023/05/14 02:19:29;;;;;;;6.10;5.50;;;;;;;11.16;100.00;100260.97;5028922;28;20658;-75
2023/05/14 02:21:54;;;;;;;6.37;5.87;;;;;;;11.09;100.00;100256.75;5027293;28;20253;-76
2023/05/14 02:24:20;;;;;;;6.70;6.20;;;;;;;11.02;100.00;100261.16;5027454;28;20204;-76
2023/05/14 02:26:45;;;;;;;6.53;6.03;;;;;;;10.95;100.00;100259.47;5026693;28;20651;-76
2023/05/14 02:29:11;;;;;;;6.37;5.97;;;;;;;10.90;100.00;100256.94;5028626;28;20739;-75
2023/05/14 02:31:36;;;;;;;7.33;6.73;;;;;;;10.84;100.00;100246.66;5017532;28;20198;-77
2023/05/14 02:34:05;;;;;;;6.53;6.13;;;;;;;10.79;100.00;100248.44;5053154;28;20164;-77
2023/05/14 02:36:31;;;;;;;6.97;6.47;;;;;;;10.76;100.00;100257.09;5050432;28;20199;-77
2023/05/14 02:38:58;;;;;;;6.87;6.37;;;;;;;10.74;100.00;100256.25;5014202;28;20213;-77
2023/05/14 02:41:23;;;;;;;7.10;6.60;;;;;;;10.73;100.00;100251.09;5024042;28;20253;-76
2023/05/14 02:43:49;;;;;;;6.90;6.30;;;;;;;10.74;100.00;100245.03;5026178;28;20253;-75
2023/05/14 02:46:14;;;;;;;7.20;6.70;;;;;;;10.76;100.00;100246.72;5027168;28;20216;-76
2023/05/14 02:48:39;;;;;;;7.77;7.17;;;;;;;10.77;100.00;100248.44;5026511;28;20187;-76
2023/05/14 02:51:06;;;;;;;7.80;7.30;;;;;;;10.78;100.00;100259.69;5025594;28;20188;-76
2023/05/14 02:53:32;;;;;;;7.23;6.73;;;;;;;10.79;100.00;100253.63;5011601;28;20191;-76
2023/05/14 02:55:57;;;;;;;7.47;6.87;;;;;;;10.80;100.00;100257.94;5011793;28;20706;-76
2023/05/14 02:58:22;;;;;;;7.03;6.53;;;;;;;10.80;100.00;100256.19;5025244;28;20223;-75
2023/05/14 03:00:47;;;;;;;8.10;7.50;;;;;;;10.80;100.00;100255.34;5022751;28;20188;-77
2023/05/14 03:03:13;;;;;;;7.90;7.40;;;;;;;10.81;100.00;100262.25;5021822;28;20200;-76
2023/05/14 03:05:38;;;;;;;8.10;7.40;;;;;;;10.82;100.00;100256.16;5008615;28;20495;-76
2023/05/14 03:08:04;;;;;;;8.10;7.50;;;;;;;10.84;100.00;100259.59;5007204;28;20303;-76
2023/05/14 03:10:30;;;;;;;7.87;7.33;;;;;;;10.86;100.00;100255.25;5024901;28;20731;-76
2023/05/14 03:12:55;;;;;;;10.47;9.77;;;;;;;10.89;100.00;100244.03;5019174;28;20644;-76
2023/05/14 03:15:20;;;;;;;10.93;10.13;;;;;;;10.90;100.00;100241.41;5025297;28;20211;-75
2023/05/14 03:17:46;;;;;;;11.30;10.40;;;;;;;10.91;100.00;100239.66;5023157;28;20690;-75
2023/05/14 03:20:11;;;;;;;11.07;10.37;;;;;;;10.93;100.00;100246.56;5026786;28;20197;-77
2023/05/14 03:22:37;;;;;;;10.73;10.00;;;;;;;10.95;100.00;100237.06;5024563;28;20706;-75
2023/05/14 03:25:02;;;;;;;11.60;10.80;;;;;;;10.98;100.00;100241.34;5025516;28;20596;-76
2023/05/14 03:27:28;;;;;;;10.33;9.53;;;;;;;10.99;100.00;100240.47;5024084;28;20217;-76
2023/05/14 03:29:53;;;;;;;10.43;9.63;;;;;;;11.00;100.00;100243.88;5025531;28;20184;-75
2023/05/14 03:32:18;;;;;;;9.87;9.17;;;;;;;11.03;100.00;100231.78;5022662;28;20204;-75
2023/05/14 03:34:44;;;;;;;9.20;8.50;;;;;;;11.03;100.00;100246.44;5021207;28;20222;-76
2023/05/14 03:37:10;;;;;;;7.70;7.20;;;;;;;11.04;100.00;100240.41;5022595;28;20185;-75
2023/05/14 03:39:35;;;;;;;7.37;6.87;;;;;;;11.05;100.00;100240.38;5025119;28;20211;-75
2023/05/14 03:42:00;;;;;;;7.37;6.87;;;;;;;11.05;100.00;100247.28;5024745;28;20195;-76
2023/05/14 03:44:26;;;;;;;8.27;7.47;;;;;;;11.07;100.00;100242.97;5024305;28;20180;-77
2023/05/14 03:46:51;;;;;;;7.87;7.20;;;;;;;11.06;100.00;100242.09;5023262;28;20203;-76
2023/05/14 03:49:16;;;;;;;7.23;6.77;;;;;;;11.08;100.00;100245.53;5024097;28;20271;-75
2023/05/14 03:51:42;;;;;;;7.90;7.30;;;;;;;11.12;100.00;100246.34;5023611;28;20193;-75
2023/05/14 03:54:07;;;;;;;7.57;7.07;;;;;;;11.15;100.00;100235.09;5006299;28;20279;-75
2023/05/14 03:56:33;;;;;;;7.50;7.00;;;;;;;11.14;100.00;100234.22;5023431;28;20698;-75
2023/05/14 03:58:58;;;;;;;7.20;6.70;;;;;;;11.14;100.00;100244.59;5025410;28;20210;-75
2023/05/14 04:01:23;;;;;;;6.73;6.23;;;;;;;11.16;100.00;100232.47;5004060;28;20613;-75
2023/05/14 04:03:49;;;;;;;6.73;6.33;;;;;;;11.16;100.00;100231.63;5023108;28;20234;-76
2023/05/14 04:06:15;;;;;;;7.73;7.03;;;;;;;11.16;100.00;100248.03;5024454;28;20215;-76
2023/05/14 04:08:40;;;;;;;7.10;6.60;;;;;;;11.14;100.00;100244.59;5017703;28;20192;-75
2023/05/14 04:11:05;;;;;;;7.27;6.77;;;;;;;11.15;100.00;100245.47;5023474;28;20185;-75
2023/05/14 04:13:30;;;;;;;7.03;6.53;;;;;;;11.16;100.00;100253.19;5023618;28;22048;-75
2023/05/14 04:15:56;;;;;;;6.67;6.17;;;;;;;11.16;100.00;100244.59;5004482;28;20216;-76
2023/05/14 04:18:21;;;;;;;6.67;6.17;;;;;;;11.16;100.00;100247.19;5027589;28;20220;-75
2023/05/14 04:20:46;;;;;;;6.80;6.30;;;;;;;11.15;100.00;100250.63;5007071;28;20537;-75
2023/05/14 04:23:11;;;;;;;6.63;6.13;;;;;;;11.11;100.00;100255.84;5022397;28;20199;-76
2023/05/14 04:25:37;;;;;;;6.97;6.47;;;;;;;11.11;100.00;100253.25;5023331;28;20243;-75
2023/05/14 04:28:02;;;;;;;7.20;6.60;;;;;;;11.11;100.00;100245.50;5022845;28;20199;-75
2023/05/14 04:30:28;;;;;;;6.60;6.20;;;;;;;11.10;100.00;100250.69;5006817;28;20207;-75
2023/05/14 04:32:53;;;;;;;7.03;6.43;;;;;;;11.12;100.00;100252.38;5020690;28;20265;-75
2023/05/14 04:35:20;;;;;;;6.23;5.73;;;;;;;11.13;100.00;100251.50;5023598;28;20219;-75
2023/05/14 04:37:45;;;;;;;6.10;5.70;;;;;;;11.17;100.00;100256.66;5021046;28;20188;-77
2023/05/14 04:40:11;;;;;;;6.67;6.17;;;;;;;11.19;100.00;100258.34;5024220;28;20291;-76
2023/05/14 04:42:37;;;;;;;6.90;6.40;;;;;;;11.23;100.00;100261.75;5023342;28;20195;-75
2023/05/14 04:45:04;;;;;;;6.73;6.23;;;;;;;11.22;100.00;100252.25;5025383;28;20215;-76
2023/05/14 04:47:30;;;;;;;6.70;6.20;;;;;;;11.19;100.00;100257.50;5023080;28;20191;-75
2023/05/14 04:49:56;;;;;;;7.03;6.43;;;;;;;11.19;100.00;100257.50;5023236;28;20679;-76
2023/05/14 04:52:21;;;;;;;6.97;6.47;;;;;;;11.23;100.00;100257.44;5021916;28;20195;-76
2023/05/14 04:54:46;;;;;;;6.50;6.00;;;;;;;11.27;100.00;100250.47;5022603;28;20965;-75
2023/05/14 04:57:12;;;;;;;6.30;5.80;;;;;;;11.32;100.00;100258.19;5022050;28;20904;-76
2023/05/14 04:59:37;;;;;;;6.80;6.30;;;;;;;11.42;100.00;100263.25;5022554;28;20206;-75
2023/05/14 05:02:02;;;;;;;6.50;6.00;;;;;;;11.53;100.00;100267.41;5023631;28;20184;-75
2023/05/14 05:04:28;;;;;;;6.60;6.13;;;;;;;11.60;100.00;100258.69;5022493;28;20195;-75
2023/05/14 05:06:53;;;;;;;6.83;6.33;;;;;;;11.67;100.00;100262.06;5027624;28;20207;-75
2023/05/14 05:09:19;;;;;;;7.30;6.70;;;;;;;11.73;100.00;100261.97;5009075;28;20241;-76
2023/05/14 05:11:44;;;;;;;6.37;5.87;;;;;;;11.80;100.00;100255.81;5026143;28;20269;-75
2023/05/14 05:14:09;;;;;;;6.80;6.20;;;;;;;11.86;100.00;100255.75;5025890;28;20257;-77
2023/05/14 05:16:35;;;;;;;6.13;5.73;;;;;;;11.88;100.00;100250.53;5025820;28;20226;-76
2023/05/14 05:19:00;;;;;;;6.47;5.97;;;;;;;11.99;100.00;100255.59;5027703;28;20211;-75
2023/05/14 05:21:26;;;;;;;5.67;5.17;;;;;;;12.10;100.00;100248.50;5025446;28;20196;-75
2023/05/14 05:23:51;;;;;;;6.43;5.93;;;;;;;12.16;100.00;100245.81;5027459;28;20573;-75
2023/05/14 05:26:16;;;;;;;6.13;5.63;;;;;;;12.24;100.00;100250.00;5025943;28;20222;-76
2023/05/14 05:28:42;;;;;;;6.10;5.60;;;;;;;12.30;100.00;100255.94;5008757;28;20189;-75
2023/05/14 05:31:07;;;;;;;5.90;5.50;;;;;;;12.41;100.00;100250.56;5027194;28;20236;-75
2023/05/14 05:33:33;;;;;;;5.80;5.40;;;;;;;12.51;100.00;100253.88;5024685;28;20222;-76
2023/05/14 05:35:59;;;;;;;6.03;5.53;;;;;;;12.62;100.00;100251.09;5024715;28;20224;-75
2023/05/14 05:38:24;;;;;;;5.73;5.33;;;;;;;12.73;100.00;100256.06;5026873;28;20480;-74
2023/05/14 05:40:49;;;;;;;6.27;5.87;;;;;;;12.79;100.00;100254.22;5026101;28;20201;-75
2023/05/14 05:43:15;;;;;;;5.77;5.37;;;;;;;12.86;100.00;100261.91;5027068;28;20199;-76
2023/05/14 05:45:41;;;;;;;6.60;6.10;;;;;;;12.94;100.00;100254.81;5026599;28;20212;-76
2023/05/14 05:48:06;;;;;;;5.60;5.20;;;;;;;13.10;100.00;100255.38;5024832;28;20192;-76
2023/05/14 05:50:31;;;;;;;5.50;5.10;;;;;;;13.21;100.00;100260.38;5024737;28;20307;-77
2023/05/14 05:53:00;;;;;;;5.30;4.90;;;;;;;13.29;100.00;100265.41;5025519;28;20226;-76
2023/05/14 05:55:25;;;;;;;5.70;5.20;;;;;;;13.41;100.00;100254.78;5025631;28;20314;-76
2023/05/14 05:57:51;;;;;;;5.70;5.30;;;;;;;13.52;100.00;100246.75;5024384;28;20297;-75
2023/05/14 06:00:16;;;;;;;5.97;5.20;;;;;;;13.64;100.00;100254.28;5025673;28;20192;-76
2023/05/14 06:02:42;;;;;;;5.53;5.13;;;;;;;13.78;100.00;100250.50;5026382;28;20276;-78
2023/05/14 06:05:09;;;;;;;5.03;4.63;;;;;;;13.90;100.00;100245.00;5025290;28;20683;-75
2023/05/14 06:07:34;;;;;;;5.60;5.20;;;;;;;14.01;100.00;100250.81;5023729;28;20192;-76
2023/05/14 06:10:00;;;;;;;5.20;4.80;;;;;;;14.53;100.00;100247.81;5019168;28;20185;-75
2023/05/14 06:12:25;;;;;;;5.33;4.93;;;;;;;15.11;99.79;100247.16;5005912;28;20183;-75
2023/05/14 06:14:50;;;;;;;6.00;5.50;;;;;;;15.76;97.97;100250.47;5028102;28;20775;-76
2023/05/14 06:17:16;;;;;;;5.57;5.17;;;;;;;16.69;92.48;100246.56;5024902;28;20649;-76
2023/05/14 06:19:41;;;;;;;5.20;4.80;;;;;;;17.21;89.75;100255.19;5025241;28;20294;-75
2023/05/14 06:22:06;;;;;;;5.07;4.67;;;;;;;18.62;85.78;100245.28;5026165;28;20200;-76
2023/05/14 06:24:32;;;;;;;4.60;4.30;;;;;;;19.99;79.61;100242.59;5024625;28;20195;-75
2023/05/14 06:26:57;;;;;;;4.83;4.43;;;;;;;20.80;76.16;100235.03;5025721;28;20197;-75
2023/05/14 06:29:24;;;;;;;4.03;3.73;;;;;;;21.38;73.97;100230.16;5025275;28;20230;-76
2023/05/14 06:31:49;;;;;;;4.43;4.13;;;;;;;21.95;72.33;100233.22;5025561;28;20203;-75
2023/05/14 06:34:15;;;;;;;4.57;4.17;;;;;;;22.31;70.86;100242.56;5026715;28;20184;-76
2023/05/14 06:36:40;;;;;;;3.77;3.47;;;;;;;22.93;69.89;100236.22;5026934;28;20211;-75
2023/05/14 06:39:05;;;;;;;4.07;3.77;;;;;;;23.22;68.39;100230.94;5027600;28;20285;-75
2023/05/14 06:41:30;;;;;;;5.03;4.63;;;;;;;23.13;67.16;100229.72;5022180;28;20195;-76
2023/05/14 06:43:56;;;;;;;4.30;4.00;;;;;;;23.54;66.90;100228.91;5024188;28;20249;-75
2023/05/14 06:46:22;;;;;;;4.80;4.17;;;;;;;23.56;66.83;100226.16;5003582;28;20218;-76
2023/05/14 06:48:47;;;;;;;4.20;3.73;;;;;;;23.55;66.61;100219.19;5022788;28;20329;-77
2023/05/14 06:51:12;;;;;;;4.10;3.70;;;;;;;23.55;66.36;100225.31;5007339;28;20184;-75
2023/05/14 06:53:39;;;;;;;4.80;4.30;;;;;;;23.49;66.29;100225.72;5024077;28;20191;-77
2023/05/14 06:56:04;;;;;;;4.67;4.27;;;;;;;22.75;67.22;100225.03;5021329;28;20214;-75
2023/05/14 06:58:29;;;;;;;4.60;4.20;;;;;;;22.32;67.33;100234.53;5022089;28;20203;-76
2023/05/14 07:00:55;;;;;;;4.90;4.50;;;;;;;22.30;67.25;100232.94;5006018;28;20199;-75
2023/05/14 07:03:21;;;;;;;4.17;3.87;;;;;;;22.59;67.55;100227.75;5026552;28;20298;-77
2023/05/14 07:05:47;;;;;;;4.67;4.37;;;;;;;22.72;66.87;100223.44;5027122;28;20203;-77
2023/05/14 07:08:12;;;;;;;4.53;3.97;;;;;;;22.79;67.65;100237.91;5018807;28;20210;-75
2023/05/14 07:10:38;;;;;;;4.93;4.53;;;;;;;22.82;66.83;100229.00;5017478;28;20192;-76
2023/05/14 07:13:03;;;;;;;4.90;4.50;;;;;;;22.86;67.00;100229.66;5017600;28;20226;-75
2023/05/14 07:15:29;;;;;;;15.10;13.60;;;;;;;22.91;66.82;100227.59;5022315;28;20231;-75
2023/05/14 07:17:54;;;;;;;5.63;5.13;;;;;;;22.74;66.89;100228.59;5025208;28;20245;-75
2023/05/14 07:20:19;;;;;;;4.50;4.10;;;;;;;22.59;67.55;100227.75;5024380;28;20183;-75
2023/05/14 07:22:45;;;;;;;4.50;4.20;;;;;;;22.23;68.40;100230.66;5004566;28;20253;-76
2023/05/14 07:25:11;;;;;;;4.70;4.30;;;;;;;22.20;67.98;100222.94;5021989;28;20218;-76
2023/05/14 07:27:37;;;;;;;4.97;4.57;;;;;;;21.77;68.69;100213.13;5019492;28;20183;-77
2023/05/14 07:30:04;;;;;;;4.20;3.90;;;;;;;22.13;68.29;100218.97;5022923;28;20235;-75
2023/05/14 07:32:29;;;;;;;5.20;4.80;;;;;;;21.91;68.00;100219.38;5022963;28;20195;-76
2023/05/14 07:34:54;;;;;;;5.47;5.03;;;;;;;20.98;69.24;100219.19;5020215;28;20199;-76
2023/05/14 07:37:21;;;;;;;4.90;4.50;;;;;;;21.41;69.58;100206.31;5019877;28;20349;-75
2023/05/14 07:39:46;;;;;;;5.40;5.00;;;;;;;21.05;70.03;100219.72;5023380;28;20199;-75
2023/05/14 07:42:12;;;;;;;5.13;4.73;;;;;;;21.15;69.98;100216.50;5005005;28;20183;-75
2023/05/14 07:44:37;;;;;;;5.63;5.23;;;;;;;20.56;71.12;100213.44;5021990;28;20223;-75
2023/05/14 07:47:03;;;;;;;5.37;4.97;;;;;;;20.54;71.28;100213.53;5023958;28;22497;-76
2023/05/14 07:49:28;;;;;;;5.73;5.23;;;;;;;20.30;71.54;100204.28;5023343;28;20191;-76
2023/05/14 07:51:53;;;;;;;5.57;5.07;;;;;;;20.06;72.26;100202.81;5021128;28;20194;-76
2023/05/14 07:54:19;;;;;;;5.87;5.37;;;;;;;19.87;72.60;100202.88;5025010;28;20233;-75
2023/05/14 07:56:44;;;;;;;5.87;5.47;;;;;;;19.83;72.71;100197.81;5022110;28;20297;-77
2023/05/14 07:59:09;;;;;;;6.97;5.43;;;;;;;19.12;73.82;100200.28;5017010;28;20213;-78
2023/05/14 08:01:35;;;;;;;5.47;5.07;;;;;;;19.15;74.73;100204.50;5019110;28;20196;-76
2023/05/14 08:04:00;;;;;;;6.40;5.90;;;;;;;19.09;75.98;100204.78;5017243;28;20191;-77
2023/05/14 08:06:27;;;;;;;6.27;5.77;;;;;;;18.87;76.86;100200.50;5019904;28;20218;-76
2023/05/14 08:08:52;;;;;;;5.30;4.90;;;;;;;18.93;76.49;100202.00;5020533;28;20252;-76
2023/05/14 08:11:18;;;;;;;5.93;5.43;;;;;;;18.99;76.21;100197.34;5018597;28;20194;-76
2023/05/14 08:13:43;;;;;;;5.87;5.47;;;;;;;19.00;76.49;100192.94;5016149;28;20189;-75
2023/05/14 08:16:09;;;;;;;5.93;5.43;;;;;;;18.79;77.20;100195.59;5014566;28;20463;-78
2023/05/14 08:18:34;;;;;;;6.57;5.40;;;;;;;18.70;77.23;100198.63;5004162;28;20210;-76
2023/05/14 08:21:00;;;;;;;5.70;5.20;;;;;;;18.56;78.17;100192.22;5023579;28;20231;-76
2023/05/14 08:23:25;;;;;;;6.27;5.77;;;;;;;18.52;78.00;100195.03;5022968;28;20202;-76
2023/05/14 08:25:51;;;;;;;5.20;4.80;;;;;;;18.42;78.07;100192.84;5004385;28;20216;-75
2023/05/14 08:28:16;;;;;;;5.90;5.50;;;;;;;18.43;79.29;100189.28;5024739;28;20195;-76
2023/05/14 08:30:41;;;;;;;5.93;5.37;;;;;;;18.32;78.53;100191.50;5022433;28;20256;-77
2023/05/14 08:33:07;;;;;;;5.57;5.17;;;;;;;18.39;79.16;100181.63;5022070;28;20209;-76
2023/05/14 08:35:32;;;;;;;5.20;4.80;;;;;;;18.29;79.52;100183.81;5023143;28;20928;-76
2023/05/14 08:37:57;;;;;;;5.17;4.73;;;;;;;18.34;79.77;100187.06;5009036;28;20197;-77
2023/05/14 08:40:23;;;;;;;6.23;5.73;;;;;;;18.04;79.32;100190.06;5019086;28;20686;-76
2023/05/14 08:42:50;;;;;;;5.33;4.90;;;;;;;17.91;80.42;100188.84;5019670;28;20193;-76
2023/05/14 08:45:24;;;;;;;5.47;4.93;;;;;;;17.93;80.02;100181.78;5021613;28;20302;-75
2023/05/14 08:47:50;;;;;;;5.87;5.47;;;;;;;18.01;81.04;100179.72;5020167;28;20191;-75
2023/05/14 08:50:17;;;;;;;5.67;5.27;;;;;;;18.06;79.54;100176.91;5022054;28;20190;-76
2023/05/14 08:52:42;;;;;;;5.37;4.97;;;;;;;18.19;79.84;100183.34;5017299;28;20220;-78
2023/05/14 08:55:09;;;;;;;5.23;4.83;;;;;;;18.19;79.55;100180.72;5020180;28;20239;-78
2023/05/14 08:57:34;;;;;;;5.30;4.87;;;;;;;18.22;80.02;100172.75;5023498;28;20275;-76
2023/05/14 09:00:07;;;;;;;4.73;4.33;;;;;;;18.51;80.02;100175.88;5024865;28;20304;-76
2023/05/14 09:02:33;;;;;;;4.77;4.37;;;;;;;18.70;78.61;100180.25;5020471;28;20191;-75
2023/05/14 09:05:00;;;;;;;4.83;4.53;;;;;;;18.81;77.30;100170.16;5023317;28;20218;-79
2023/05/14 09:07:26;;;;;;;4.87;4.57;;;;;;;18.95;76.55;100161.69;5018718;28;20679;-74
2023/05/14 09:09:52;;;;;;;5.17;4.50;;;;;;;18.77;74.89;100171.22;5028826;28;20200;-76
2023/05/14 09:12:17;;;;;;;4.60;4.30;;;;;;;18.61;76.99;100165.78;5033703;28;20730;-75
2023/05/14 09:14:43;;;;;;;4.53;4.23;;;;;;;18.86;77.03;100157.69;5026561;28;20209;-77
2023/05/14 09:17:11;;;;;;;4.47;4.17;;;;;;;19.13;76.30;100154.75;5018669;28;20213;-75
2023/05/14 09:19:39;;;;;;;4.77;4.30;;;;;;;19.00;73.85;100150.97;5021974;28;20801;-76
2023/05/14 09:22:07;;;;;;;4.93;4.53;;;;;;;18.88;74.36;100152.38;5020848;28;20199;-75
2023/05/14 09:24:33;;;;;;;4.90;4.40;;;;;;;18.89;73.93;100149.69;5021406;28;20194;-75
2023/05/14 09:26:58;;;;;;;4.30;4.00;;;;;;;18.97;74.56;100141.50;5017793;28;20183;-76
2023/05/14 09:29:25;;;;;;;3.60;3.40;;;;;;;19.14;74.06;100145.09;5015084;28;20187;-76
2023/05/14 09:31:51;;;;;;;4.20;3.90;;;;;;;18.96;72.60;100146.81;5014743;28;20187;-76
2023/05/14 09:34:29;;;;;;;3.13;2.83;;;;;;;19.03;70.55;100143.84;5016439;28;21040;-77
2023/05/14 09:36:56;;;;;;;3.13;2.93;;;;;;;18.73;69.45;100144.31;5016588;28;20253;-76
2023/05/14 09:39:24;;;;;;;3.00;2.80;;;;;;;18.99;70.19;100150.16;5013499;28;20211;-77
2023/05/14 09:41:50;;;;;;;2.93;2.73;;;;;;;18.51;68.94;100148.78;4996443;28;20199;-76
2023/05/14 09:44:16;;;;;;;3.17;2.87;;;;;;;18.21;69.78;100142.22;5015241;28;20191;-77
2023/05/14 09:46:41;;;;;;;3.40;3.20;;;;;;;18.09;71.46;100142.72;5022512;28;20222;-77
2023/05/14 09:49:07;;;;;;;3.90;3.60;;;;;;;18.13;72.46;100142.56;5021396;28;20290;-77
2023/05/14 09:51:32;;;;;;;3.50;3.00;;;;;;;18.39;70.51;100135.31;5022039;28;20194;-76
2023/05/14 09:53:57;;;;;;;2.70;2.50;;;;;;;18.40;69.25;100130.91;5028434;28;20191;-76
2023/05/14 09:56:23;;;;;;;3.13;2.80;;;;;;;18.48;69.35;100138.44;5027569;28;20199;-77
2023/05/14 09:58:48;;;;;;;2.80;2.60;;;;;;;18.57;68.98;100130.19;5005897;28;20230;-77
2023/05/14 10:01:18;;;;;;;2.90;2.40;;;;;;;18.72;68.90;100128.63;5023096;28;20187;-77
2023/05/14 10:03:44;;;;;;;2.50;2.30;;;;;;;18.79;69.12;100121.31;5025978;28;20654;-76
2023/05/14 10:06:12;;;;;;;3.00;2.80;;;;;;;19.08;69.01;100132.25;5026355;28;20288;-76
2023/05/14 10:08:42;;;;;;;2.80;2.60;;;;;;;19.09;69.82;100123.47;5024280;28;20238;-76
2023/05/14 10:11:13;;;;;;;3.53;2.70;;;;;;;19.14;69.45;100130.19;5024516;28;21856;-75
2023/05/14 10:13:44;;;;;;;3.53;3.23;;;;;;;19.01;69.63;100121.22;5023706;28;20183;-77
2023/05/14 10:16:25;;;;;;;3.07;2.87;;;;;;;19.02;68.99;100123.78;5027138;28;20199;-78
2023/05/14 10:18:54;;;;;;;2.90;2.70;;;;;;;19.09;67.93;100123.47;5019586;28;20207;-75
2023/05/14 10:21:21;;;;;;;3.77;2.70;;;;;;;19.47;68.18;100119.00;5005238;28;20911;-76
2023/05/14 10:23:48;;;;;;;2.60;2.40;;;;;;;19.84;67.50;100118.97;5024805;28;20270;-77
2023/05/14 10:26:14;;;;;;;2.70;2.50;;;;;;;20.13;67.29;100111.41;5024118;28;20277;-77
2023/05/14 10:28:40;;;;;;;2.90;2.70;;;;;;;20.20;67.20;100110.16;5027736;28;20317;-76
2023/05/14 10:31:08;;;;;;;2.70;2.50;;;;;;;20.34;67.08;100111.22;5002997;28;20650;-78
2023/05/14 10:33:49;;;;;;;3.07;2.87;;;;;;;20.38;67.74;100118.84;5007847;28;20190;-76
2023/05/14 10:36:16;;;;;;;3.27;3.00;;;;;;;20.36;68.40;100114.63;5025782;28;20210;-76
2023/05/14 10:38:41;;;;;;;3.50;3.20;;;;;;;20.34;69.02;100112.09;5006421;28;20572;-77
2023/05/14 10:41:11;;;;;;;4.57;4.27;;;;;;;20.50;70.06;100106.84;5019929;28;20194;-77
2023/05/14 10:43:39;;;;;;;4.43;3.90;;;;;;;20.68;70.81;100104.16;5018914;28;20690;-77
2023/05/14 10:46:05;;;;;;;4.30;3.93;;;;;;;20.56;70.08;100103.03;5023852;28;20703;-75
2023/05/14 10:48:32;;;;;;;4.03;3.73;;;;;;;20.75;70.12;100095.03;5024101;28;20188;-78
2023/05/14 10:50:57;;;;;;;4.93;4.43;;;;;;;;;;5022349;28;20184;-76
2023/05/14 10:53:37;;;;;;;4.50;4.20;;;;;;;20.86;70.32;100094.44;5017917;28;20291;-77
2023/05/14 10:56:07;;;;;;;6.23;5.73;;;;;;;21.15;70.50;100086.72;5021410;28;20203;-75
2023/05/14 10:58:48;;;;;;;4.53;4.20;;;;;;;21.44;70.24;100081.56;5019477;28;20216;-77
2023/05/14 11:01:14;;;;;;;4.43;4.07;;;;;;;21.77;68.27;100085.81;5015219;28;20199;-76
2023/05/14 11:03:41;;;;;;;3.90;3.60;;;;;;;22.04;67.12;100085.97;5016415;28;20253;-77
2023/05/14 11:06:07;;;;;;;4.80;4.40;;;;;;;21.89;67.79;100082.44;5019449;28;20217;-77
2023/05/14 11:08:33;;;;;;;3.93;3.63;;;;;;;21.99;67.16;100081.94;5020414;28;20263;-77
2023/05/14 11:10:58;;;;;;;4.27;3.97;;;;;;;21.87;66.64;100075.59;5017691;28;20193;-76
2023/05/14 11:13:25;;;;;;;4.87;3.37;;;;;;;21.93;67.07;100076.06;5021915;28;20269;-77
2023/05/14 11:15:51;;;;;;;3.57;3.33;;;;;;;21.95;67.44;100069.88;5015864;28;20203;-76
2023/05/14 11:18:28;;;;;;;3.40;3.20;;;;;;;22.02;67.56;100079.06;5014866;28;20672;-77